Time;durP1;ratioP1;P1;durP2;ratioP2;P2;SDS_P1;SDS_P2;PMS_P1;PMS_P2;Temp;Humidity;BMP_temperature;BMP_pressure;BME280_temperature;BME280_humidity;BME280_pressure;Samples;Min_cycle;Max_cycle;Signal;HPM_P1;HPM_P2
2021/05/09 00:01:58;;;;;;;4.00;3.63;;;6.90;99.90;;;;;;5071744;28;20508;-81
2021/05/09 00:04:26;;;;;;;3.75;2.20;;;6.40;99.90;;;;;;5037091;28;20045;-81
2021/05/09 00:06:55;;;;;;;2.33;2.10;;;6.30;99.90;;;;;;5071497;28;20037;-82
2021/05/09 00:09:23;;;;;;;4.95;3.63;;;6.30;99.90;;;;;;5037846;28;20048;-82
2021/05/09 00:11:50;;;;;;;9.48;2.00;;;6.40;99.90;;;;;;5071069;28;20040;-82
2021/05/09 00:14:18;;;;;;;2.20;2.00;;;6.40;99.90;;;;;;5071432;28;20372;-82
2021/05/09 00:16:45;;;;;;;3.03;2.42;;;6.40;99.90;;;;;;5070288;28;20049;-82
2021/05/09 00:19:13;;;;;;;2.85;2.65;;;6.30;99.90;;;;;;5070828;28;20386;-79
2021/05/09 00:21:40;;;;;;;2.13;1.92;;;6.30;99.90;;;;;;5037107;28;20044;-80
2021/05/09 00:24:08;;;;;;;2.30;1.88;;;6.20;99.90;;;;;;5037529;28;20379;-79
2021/05/09 00:26:35;;;;;;;2.50;2.28;;;6.10;99.90;;;;;;5037209;28;20087;-80
2021/05/09 00:29:10;;;;;;;2.17;2.08;;;5.80;99.90;;;;;;5071503;28;20106;-80
2021/05/09 00:31:37;;;;;;;4.50;4.13;;;5.60;99.90;;;;;;5036433;28;20048;-80
2021/05/09 00:34:05;;;;;;;2.88;2.38;;;5.60;99.90;;;;;;5053900;28;20048;-80
2021/05/09 00:36:33;;;;;;;2.50;2.30;;;5.60;99.90;;;;;;5032923;28;20037;-80
2021/05/09 00:39:00;;;;;;;3.10;2.90;;;5.70;99.90;;;;;;5050385;28;20393;-79
2021/05/09 00:41:28;;;;;;;2.55;2.35;;;5.70;99.90;;;;;;5051349;28;20060;-79
2021/05/09 00:43:55;;;;;;;2.40;2.20;;;5.70;99.90;;;;;;5032305;28;20044;-79
2021/05/09 00:46:23;;;;;;;2.40;2.20;;;5.90;99.90;;;;;;5050496;28;20076;-79
2021/05/09 00:48:50;;;;;;;3.58;2.28;;;5.90;99.90;;;;;;5033122;28;20047;-79
2021/05/09 00:51:18;;;;;;;2.60;2.40;;;5.90;99.90;;;;;;5015790;28;20049;-80
2021/05/09 00:53:46;;;;;;;2.47;2.28;;;5.50;99.90;;;;;;5033270;28;20060;-79
2021/05/09 00:56:16;;;;;;;2.42;2.22;;;5.40;99.90;;;;;;5033044;28;20037;-79
2021/05/09 00:58:46;;;;;;;3.35;2.83;;;5.30;99.90;;;;;;5032843;28;20053;-80
2021/05/09 01:01:15;;;;;;;2.92;2.70;;;5.50;99.90;;;;;;5032627;28;20409;-80
2021/05/09 01:03:46;;;;;;;5.10;2.92;;;5.70;99.90;;;;;;5050670;28;20072;-80
2021/05/09 01:06:14;;;;;;;2.53;2.33;;;5.70;99.90;;;;;;5032940;28;20060;-80
2021/05/09 01:08:42;;;;;;;4.18;2.92;;;5.60;99.90;;;;;;5049994;28;20494;-80
2021/05/09 01:11:11;;;;;;;2.80;2.60;;;5.60;99.90;;;;;;5049076;28;20041;-80
2021/05/09 01:13:38;;;;;;;3.10;2.80;;;5.60;99.90;;;;;;5016765;28;20056;-80
2021/05/09 01:16:06;;;;;;;2.83;2.63;;;5.70;99.90;;;;;;5032612;28;20685;-80
2021/05/09 01:18:34;;;;;;;3.55;2.67;;;5.70;99.90;;;;;;5032544;28;20052;-80
2021/05/09 01:21:02;;;;;;;2.53;2.33;;;5.70;99.90;;;;;;5049279;28;20482;-80
2021/05/09 01:23:30;;;;;;;4.90;2.97;;;5.60;99.90;;;;;;5050578;28;20056;-80
2021/05/09 01:25:57;;;;;;;5.70;3.00;;;5.60;99.90;;;;;;5016937;28;20060;-79
2021/05/09 01:28:24;;;;;;;3.00;2.80;;;5.50;99.90;;;;;;5064786;28;20404;-80
2021/05/09 01:30:52;;;;;;;3.47;3.17;;;5.40;99.90;;;;;;5069765;28;20040;-80
2021/05/09 01:33:19;;;;;;;3.33;2.75;;;5.20;99.90;;;;;;5069411;28;20053;-79
2021/05/09 01:35:47;;;;;;;2.78;2.58;;;5.20;99.90;;;;;;5069640;28;20040;-79
2021/05/09 01:38:15;;;;;;;2.53;2.10;;;5.40;99.90;;;;;;5052781;28;20049;-79
2021/05/09 01:40:42;;;;;;;3.65;3.33;;;5.50;99.90;;;;;;5070111;28;20087;-79
2021/05/09 01:43:10;;;;;;;3.42;2.95;;;5.60;99.90;;;;;;5051957;28;20041;-79
2021/05/09 01:45:38;;;;;;;3.10;2.83;;;5.50;99.90;;;;;;5070592;28;20063;-79
2021/05/09 01:48:05;;;;;;;3.72;3.05;;;5.50;99.90;;;;;;5068715;28;20052;-80
2021/05/09 01:50:33;;;;;;;3.08;2.88;;;5.70;99.90;;;;;;5069729;28;20056;-80
2021/05/09 01:53:02;;;;;;;7.60;4.05;;;5.70;99.90;;;;;;5052826;28;20059;-80
2021/05/09 01:55:31;;;;;;;3.40;2.70;;;5.60;99.90;;;;;;5052166;28;20585;-79
2021/05/09 01:58:14;;;;;;;3.47;3.17;;;5.60;99.90;;;;;;5070368;28;20409;-79
2021/05/09 02:00:56;;;;;;;8.45;3.67;;;6.20;99.90;;;;;;5051378;28;20071;-79
2021/05/09 02:03:34;;;;;;;3.17;2.90;;;6.20;99.90;;;;;;5051835;28;20048;-79
2021/05/09 02:06:04;;;;;;;2.95;2.67;;;6.10;99.90;;;;;;5052402;28;20056;-80
2021/05/09 02:08:32;;;;;;;2.58;2.40;;;6.10;99.90;;;;;;5035437;28;20041;-80
2021/05/09 02:11:07;;;;;;;3.90;2.42;;;6.10;99.90;;;;;;5034882;28;20351;-80
2021/05/09 02:13:34;;;;;;;9.77;4.43;;;6.00;99.90;;;;;;5070905;28;20064;-80
2021/05/09 02:16:11;;;;;;;3.53;3.22;;;5.90;99.90;;;;;;5055972;28;20047;-80
2021/05/09 02:18:38;;;;;;;3.72;3.03;;;6.20;99.90;;;;;;5056101;28;20389;-80
2021/05/09 02:21:06;;;;;;;2.63;2.35;;;6.40;99.90;;;;;;5073889;28;20409;-80
2021/05/09 02:23:33;;;;;;;3.40;2.92;;;6.30;99.90;;;;;;5055998;28;20473;-80
2021/05/09 02:26:01;;;;;;;3.17;2.88;;;6.00;99.90;;;;;;5055409;28;20048;-79
2021/05/09 02:28:29;;;;;;;2.92;2.70;;;5.70;99.90;;;;;;5039345;28;20052;-80
2021/05/09 02:30:57;;;;;;;3.47;2.65;;;5.60;99.90;;;;;;5055592;28;20044;-80
2021/05/09 02:33:24;;;;;;;3.15;2.85;;;5.50;99.90;;;;;;5038906;28;20059;-80
2021/05/09 02:35:52;;;;;;;3.50;2.90;;;5.30;99.90;;;;;;5034099;28;20049;-79
2021/05/09 02:38:20;;;;;;;2.92;2.72;;;5.20;99.90;;;;;;5035924;28;20048;-79
2021/05/09 02:40:47;;;;;;;2.95;2.75;;;5.10;99.90;;;;;;5035354;28;20045;-79
2021/05/09 02:43:17;;;;;;;7.95;2.95;;;5.10;99.90;;;;;;5002987;28;20045;-80
2021/05/09 02:45:46;;;;;;;3.85;3.22;;;5.10;99.90;;;;;;5052518;28;20052;-80
2021/05/09 02:48:15;;;;;;;3.95;2.92;;;5.20;99.90;;;;;;5051539;28;20033;-80
2021/05/09 02:50:44;;;;;;;3.00;2.78;;;5.40;99.90;;;;;;5034646;28;20072;-80
2021/05/09 02:53:12;;;;;;;2.95;2.75;;;5.40;99.90;;;;;;5003164;28;20072;-80
2021/05/09 02:55:39;;;;;;;2.83;2.47;;;5.50;99.90;;;;;;5051906;28;20041;-80
2021/05/09 02:58:07;;;;;;;4.38;3.10;;;5.70;99.90;;;;;;5065193;28;20041;-80
2021/05/09 03:00:36;;;;;;;4.97;2.40;;;5.80;99.90;;;;;;5037970;28;20047;-79
2021/05/09 03:03:12;;;;;;;5.45;4.47;;;5.80;99.90;;;;;;5056056;28;20052;-79
2021/05/09 03:05:41;;;;;;;2.97;2.78;;;5.80;99.90;;;;;;5039039;28;20067;-79
2021/05/09 03:08:08;;;;;;;6.32;2.80;;;5.50;99.90;;;;;;5071819;28;20049;-79
2021/05/09 03:10:37;;;;;;;2.53;2.30;;;5.30;99.90;;;;;;5055113;28;20044;-79
2021/05/09 03:13:04;;;;;;;3.25;2.60;;;5.10;99.90;;;;;;5055332;28;20060;-79
2021/05/09 03:15:32;;;;;;;3.05;2.47;;;5.10;99.90;;;;;;5054207;28;20045;-79
2021/05/09 03:17:59;;;;;;;2.95;2.72;;;4.90;99.90;;;;;;5055190;28;20048;-79
2021/05/09 03:20:27;;;;;;;2.25;1.98;;;4.70;99.90;;;;;;5071398;28;20040;-79
2021/05/09 03:22:55;;;;;;;3.08;2.42;;;5.10;99.90;;;;;;5054752;28;20048;-80
2021/05/09 03:25:22;;;;;;;2.58;2.10;;;5.50;99.90;;;;;;5037825;28;20045;-79
2021/05/09 03:27:50;;;;;;;3.80;2.45;;;5.90;99.90;;;;;;5038074;28;20048;-80
2021/05/09 03:30:17;;;;;;;2.35;2.20;;;6.10;99.90;;;;;;5053730;28;20686;-79
2021/05/09 03:32:45;;;;;;;1.90;1.80;;;6.00;99.90;;;;;;5054115;28;20056;-79
2021/05/09 03:35:13;;;;;;;2.80;2.60;;;6.20;99.90;;;;;;5053797;28;20044;-79
2021/05/09 03:37:40;;;;;;;1.90;1.80;;;6.50;99.90;;;;;;5054211;28;20056;-79
2021/05/09 03:40:08;;;;;;;1.77;1.67;;;6.70;99.90;;;;;;5037292;28;20072;-79
2021/05/09 03:42:36;;;;;;;1.83;1.73;;;6.60;99.90;;;;;;5053612;28;20064;-79
2021/05/09 03:45:04;;;;;;;2.80;2.60;;;6.50;99.90;;;;;;5021517;28;20777;-80
2021/05/09 03:47:31;;;;;;;2.85;2.60;;;6.40;99.90;;;;;;5020939;28;20657;-80
2021/05/09 03:49:59;;;;;;;3.58;2.58;;;6.40;99.90;;;;;;5072226;28;20052;-79
2021/05/09 03:52:26;;;;;;;3.65;2.40;;;6.40;99.90;;;;;;5054311;28;20037;-79
2021/05/09 03:54:56;;;;;;;4.72;1.77;;;6.60;99.90;;;;;;5072028;28;20044;-80
2021/05/09 03:57:23;;;;;;;2.10;2.00;;;6.80;99.80;;;;;;5037392;28;20052;-80
2021/05/09 03:59:52;;;;;;;2.50;2.30;;;6.90;99.90;;;;;;5037226;28;20051;-80
2021/05/09 04:02:20;;;;;;;2.33;1.85;;;6.60;99.60;;;;;;5071977;28;20072;-80
2021/05/09 04:04:49;;;;;;;2.45;1.98;;;6.30;99.90;;;;;;5053845;28;20048;-80
2021/05/09 04:07:16;;;;;;;2.72;2.13;;;6.00;99.90;;;;;;5053761;28;20032;-80
2021/05/09 04:09:44;;;;;;;5.07;2.03;;;5.90;99.90;;;;;;5071418;28;20053;-80
2021/05/09 04:12:11;;;;;;;3.78;2.47;;;6.00;99.90;;;;;;5071171;28;20045;-80
2021/05/09 04:14:38;;;;;;;1.90;1.75;;;6.00;99.90;;;;;;5053668;28;20075;-80
2021/05/09 04:17:06;;;;;;;1.77;1.60;;;5.90;99.90;;;;;;5037246;28;20056;-80
2021/05/09 04:19:35;;;;;;;3.45;2.08;;;5.90;99.90;;;;;;5053745;28;20040;-79
2021/05/09 04:22:03;;;;;;;2.53;2.13;;;6.00;99.90;;;;;;5037230;28;20477;-79
2021/05/09 04:24:30;;;;;;;2.28;1.63;;;6.10;99.90;;;;;;5053296;28;20037;-79
2021/05/09 04:26:58;;;;;;;3.05;2.08;;;6.20;99.90;;;;;;5020695;28;20067;-79
2021/05/09 04:29:25;;;;;;;6.18;1.88;;;6.30;99.90;;;;;;5053267;28;20401;-79
2021/05/09 04:31:53;;;;;;;2.28;2.08;;;6.40;99.90;;;;;;5032259;28;20049;-79
2021/05/09 04:34:20;;;;;;;2.78;2.58;;;6.50;99.90;;;;;;5051731;28;20516;-80
2021/05/09 04:36:48;;;;;;;6.47;3.45;;;6.70;99.90;;;;;;5049725;28;20052;-79
2021/05/09 04:39:15;;;;;;;1.92;1.75;;;7.00;99.90;;;;;;5051144;28;20480;-79
2021/05/09 04:41:43;;;;;;;4.13;2.25;;;7.30;99.90;;;;;;5033313;28;20048;-80
2021/05/09 04:44:10;;;;;;;2.20;2.00;;;7.50;99.80;;;;;;5033152;28;20485;-80
2021/05/09 04:46:38;;;;;;;4.53;2.00;;;7.60;99.90;;;;;;5056842;28;20425;-80
2021/05/09 04:49:05;;;;;;;3.08;1.80;;;7.80;99.70;;;;;;5050263;28;20497;-80
2021/05/09 04:51:33;;;;;;;2.40;2.22;;;8.10;97.80;;;;;;5015858;28;20412;-80
2021/05/09 04:54:00;;;;;;;2.58;1.88;;;8.70;97.20;;;;;;5051425;28;20067;-80
2021/05/09 04:56:27;;;;;;;2.17;1.70;;;9.20;96.60;;;;;;5032998;28;20092;-80
2021/05/09 04:58:56;;;;;;;2.35;2.05;;;9.50;96.00;;;;;;5026660;28;20040;-81
2021/05/09 05:01:24;;;;;;;3.60;2.65;;;9.80;95.30;;;;;;5049544;28;20045;-80
2021/05/09 05:03:51;;;;;;;2.08;1.98;;;10.00;96.00;;;;;;5032580;28;20041;-80
2021/05/09 05:06:19;;;;;;;1.40;1.33;;;10.20;94.90;;;;;;5033281;28;20375;-80
2021/05/09 05:08:46;;;;;;;1.88;1.77;;;10.30;94.00;;;;;;5048890;28;20068;-80
2021/05/09 05:11:14;;;;;;;2.67;2.30;;;10.60;95.70;;;;;;5015878;28;20045;-81
2021/05/09 05:13:41;;;;;;;2.60;1.40;;;10.90;95.00;;;;;;5050677;28;20044;-80
2021/05/09 05:16:09;;;;;;;1.98;1.77;;;11.10;95.20;;;;;;5016172;28;20092;-81
2021/05/09 05:18:37;;;;;;;3.42;1.83;;;11.50;93.50;;;;;;5015569;28;20053;-80
2021/05/09 05:21:05;;;;;;;1.90;1.80;;;11.60;92.30;;;;;;5048183;28;20063;-81
2021/05/09 05:23:37;;;;;;;1.60;1.50;;;11.70;93.20;;;;;;5049511;28;20056;-81
2021/05/09 05:26:05;;;;;;;1.83;1.73;;;12.00;92.10;;;;;;5050098;28;20057;-81
2021/05/09 05:28:33;;;;;;;1.55;1.35;;;12.30;91.10;;;;;;5048934;28;20512;-81
2021/05/09 05:31:01;;;;;;;2.13;1.88;;;12.70;90.30;;;;;;5031644;28;20045;-81
2021/05/09 05:33:33;;;;;;;1.70;1.50;;;12.80;89.20;;;;;;5047457;28;20053;-81
2021/05/09 05:36:02;;;;;;;1.30;1.20;;;13.10;90.20;;;;;;5051299;28;20374;-82
2021/05/09 05:38:30;;;;;;;5.55;1.63;;;13.40;89.70;;;;;;5051502;28;20068;-81
2021/05/09 05:40:58;;;;;;;1.83;1.73;;;13.80;86.30;;;;;;5052944;28;20397;-82
2021/05/09 05:43:30;;;;;;;1.38;1.27;;;14.20;84.80;;;;;;5035593;28;20041;-81
2021/05/09 05:46:00;;;;;;;2.38;1.40;;;14.50;81.30;;;;;;5036213;28;20053;-80
2021/05/09 05:48:29;;;;;;;1.13;1.00;;;14.80;82.00;;;;;;5037311;28;20048;-80
2021/05/09 05:50:57;;;;;;;1.45;1.35;;;15.10;80.60;;;;;;5039274;28;20037;-80
2021/05/09 05:53:27;;;;;;;1.50;1.40;;;15.40;79.70;;;;;;5040439;28;20048;-81
2021/05/09 05:55:55;;;;;;;1.77;1.67;;;15.60;76.60;;;;;;5055951;28;20051;-80
2021/05/09 05:58:23;;;;;;;1.60;1.50;;;15.70;77.80;;;;;;5074180;28;20056;-80
2021/05/09 06:00:51;;;;;;;2.17;1.45;;;15.80;78.10;;;;;;5055568;28;20766;-81
2021/05/09 06:03:20;;;;;;;5.63;1.60;;;15.90;74.10;;;;;;5055942;28;20048;-80
2021/05/09 06:05:48;;;;;;;2.30;1.70;;;16.20;78.30;;;;;;5056291;28;20052;-81
2021/05/09 06:08:17;;;;;;;6.13;1.35;;;16.60;75.20;;;;;;5073901;28;20056;-81
2021/05/09 06:10:45;;;;;;;3.00;1.80;;;16.40;72.70;;;;;;5039050;28;20060;-80
2021/05/09 06:13:14;;;;;;;5.68;1.48;;;16.80;75.40;;;;;;5073298;28;20048;-81
2021/05/09 06:15:41;;;;;;;2.55;1.10;;;17.60;72.70;;;;;;5039241;28;20041;-81
2021/05/09 06:18:09;;;;;;;1.65;1.52;;;18.30;72.50;;;;;;5073714;28;20056;-81
2021/05/09 06:20:36;;;;;;;4.20;1.77;;;19.00;67.30;;;;;;5038506;28;20049;-81
2021/05/09 06:23:05;;;;;;;1.67;1.30;;;19.40;66.00;;;;;;5055909;28;20048;-82
2021/05/09 06:25:33;;;;;;;1.48;1.23;;;19.50;63.20;;;;;;5073185;28;20079;-82
2021/05/09 06:28:01;;;;;;;2.38;1.85;;;19.80;62.70;;;;;;5055778;28;20048;-83
2021/05/09 06:30:30;;;;;;;1.60;1.13;;;19.80;62.30;;;;;;5073333;28;20057;-82
2021/05/09 06:33:00;;;;;;;;;;;19.90;63.10;;;;;;5056033;28;20052;-82
2021/05/09 06:35:28;;;;;;;4.35;2.17;;;19.60;63.70;;;;;;5073387;28;19920;-82
2021/05/09 06:37:56;;;;;;;0.82;0.82;;;19.90;62.20;;;;;;5039359;28;20064;-82
2021/05/09 06:40:23;;;;;;;1.95;0.90;;;20.60;63.10;;;;;;5073109;28;20060;-82
2021/05/09 06:42:59;;;;;;;1.10;0.95;;;20.30;60.10;;;;;;5073117;28;20405;-84
2021/05/09 06:45:28;;;;;;;1.67;1.10;;;20.50;58.20;;;;;;5054932;28;20052;-82
2021/05/09 06:47:57;;;;;;;2.40;2.20;;;20.70;57.70;;;;;;5072792;28;20052;-79
2021/05/09 06:50:26;;;;;;;2.28;1.30;;;20.90;56.20;;;;;;5072561;28;20048;-81
2021/05/09 06:52:54;;;;;;;4.18;1.00;;;21.10;57.90;;;;;;5072817;28;20056;-81
2021/05/09 06:55:21;;;;;;;2.80;1.02;;;21.30;56.30;;;;;;5022330;28;20071;-85
2021/05/09 06:57:49;;;;;;;2.25;1.52;;;21.50;53.60;;;;;;5034834;28;20041;-85
2021/05/09 07:00:20;;;;;;;2.15;1.50;;;22.30;54.70;;;;;;5034040;28;20058;-83
2021/05/09 07:02:48;;;;;;;1.55;1.17;;;22.50;56.10;;;;;;5015275;28;20561;-81
2021/05/09 07:05:16;;;;;;;1.92;1.25;;;22.60;56.30;;;;;;5047390;28;20052;-83
2021/05/09 07:07:52;;;;;;;4.25;0.90;;;23.10;53.00;;;;;;5053109;28;20049;-87
2021/05/09 07:10:26;;;;;;;1.48;1.38;;;23.50;49.50;;;;;;5018878;28;20044;-87
2021/05/09 07:12:55;;;;;;;1.15;1.00;;;23.70;48.90;;;;;;5051651;28;20049;-87
2021/05/09 07:15:37;;;;;;;1.58;1.23;;;23.70;49.00;;;;;;5050419;28;20044;-84
2021/05/09 07:18:11;;;;;;;1.33;1.10;;;25.10;45.80;;;;;;5053010;28;20052;-84
2021/05/09 07:20:44;;;;;;;1.38;1.27;;;26.10;43.40;;;;;;5051313;28;20056;-85
2021/05/09 07:23:13;;;;;;;1.95;1.85;;;26.50;43.50;;;;;;5052523;28;20048;-84
2021/05/09 07:25:41;;;;;;;1.77;1.00;;;27.10;41.50;;;;;;5071899;28;20056;-86
2021/05/09 07:28:11;;;;;;;1.40;1.30;;;27.50;39.70;;;;;;5053604;28;20055;-83
2021/05/09 07:30:41;;;;;;;1.30;1.13;;;27.70;39.40;;;;;;5054388;28;20044;-85
2021/05/09 07:33:08;;;;;;;6.03;2.53;;;27.50;39.70;;;;;;5072540;28;20036;-87
2021/05/09 07:35:36;;;;;;;1.25;1.00;;;28.00;40.50;;;;;;5072469;28;20052;-88
2021/05/09 07:38:08;;;;;;;1.30;1.20;;;27.50;37.60;;;;;;5054847;28;20044;-90
2021/05/09 07:40:37;;;;;;;1.10;1.00;;;27.40;38.50;;;;;;5051596;28;20045;-88
2021/05/09 07:43:15;;;;;;;1.70;1.17;;;27.50;39.20;;;;;;5054414;28;20040;-87
2021/05/09 07:45:44;;;;;;;2.13;1.35;;;28.80;37.40;;;;;;5055505;28;20051;-85
2021/05/09 07:48:12;;;;;;;1.27;1.00;;;29.40;37.70;;;;;;5071610;28;20417;-91
2021/05/09 07:50:42;;;;;;;1.73;1.13;;;29.70;36.10;;;;;;5070268;28;20071;-88
2021/05/09 07:53:17;;;;;;;1.70;1.02;;;28.40;39.30;;;;;;5072164;28;20061;-82
2021/05/09 07:55:49;;;;;;;1.48;1.20;;;28.60;39.50;;;;;;5072006;28;20703;-86
2021/05/09 07:58:22;;;;;;;1.33;1.13;;;29.40;35.90;;;;;;5054891;28;20052;-83
2021/05/09 08:00:50;;;;;;;;;;;30.10;34.70;;;;;;5048556;28;20048;-83
2021/05/09 08:03:19;;;;;;;1.42;1.10;;;30.80;35.90;;;;;;5072028;28;19920;-88
2021/05/09 08:05:47;;;;;;;1.02;1.00;;;30.00;34.80;;;;;;5054312;28;20055;-86
2021/05/09 08:08:15;;;;;;;2.25;1.77;;;28.80;36.00;;;;;;5071747;28;20051;-84
2021/05/09 08:10:45;;;;;;;2.00;1.13;;;29.40;39.30;;;;;;5071604;28;20049;-89
2021/05/09 08:13:13;;;;;;;1.02;0.93;;;29.80;37.70;;;;;;5055355;28;20068;-89
2021/05/09 08:15:40;;;;;;;3.28;1.58;;;29.10;37.70;;;;;;5072644;28;20066;-90
2021/05/09 08:18:08;;;;;;;2.00;0.93;;;29.70;36.40;;;;;;5073624;28;20045;-90
2021/05/09 08:20:36;;;;;;;2.03;1.20;;;30.60;35.00;;;;;;5072467;28;20053;-91
2021/05/09 08:23:05;;;;;;;2.08;0.93;;;29.90;35.20;;;;;;5078474;28;20044;-91
2021/05/09 08:25:34;;;;;;;5.30;1.05;;;29.40;40.00;;;;;;5072847;28;20501;-89
2021/05/09 08:28:13;;;;;;;1.90;0.90;;;31.60;35.30;;;;;;5071555;28;20055;-90
2021/05/09 08:30:55;;;;;;;1.05;0.95;;;33.50;31.60;;;;;;5041241;28;20393;-91
2021/05/09 08:33:26;;;;;;;0.88;0.80;;;32.90;32.00;;;;;;5055378;28;20297;-88
2021/05/09 08:35:59;;;;;;;4.80;1.40;;;29.50;38.20;;;;;;5070519;28;20528;-91
2021/05/09 08:39:35;;;;;;;1.50;0.98;;;27.40;42.20;;;;;;5064302;28;20045;-87
2021/05/09 08:42:26;;;;;;;0.80;0.77;;;26.30;43.10;;;;;;5073398;28;20504;-90
2021/05/09 08:45:04;;;;;;;1.70;0.75;;;26.30;42.70;;;;;;5034040;28;20044;-90
2021/05/09 08:47:57;;;;;;;4.10;0.93;;;26.20;46.20;;;;;;5050353;28;20048;-89
2021/05/09 08:50:47;;;;;;;1.05;0.80;;;25.30;44.00;;;;;;5068824;28;20517;-91
2021/05/09 08:53:19;;;;;;;0.65;0.65;;;24.80;46.10;;;;;;5069534;28;20056;-90
2021/05/09 08:56:16;;;;;;;1.05;0.95;;;24.00;49.20;;;;;;5068724;28;20521;-90
2021/05/09 08:59:09;;;;;;;0.57;0.52;;;23.40;50.00;;;;;;5063572;28;20040;-90
2021/05/09 09:02:07;;;;;;;1.10;0.82;;;23.30;47.80;;;;;;5052766;28;20052;-89
2021/05/09 09:04:51;;;;;;;3.60;1.10;;;23.30;53.50;;;;;;5046105;28;20032;-89
2021/05/09 09:07:20;;;;;;;0.73;0.70;;;23.30;48.40;;;;;;5052272;28;20408;-88
2021/05/09 09:09:51;;;;;;;1.58;0.80;;;23.20;49.20;;;;;;5070256;28;20481;-88
2021/05/09 09:12:20;;;;;;;0.88;0.88;;;22.90;54.20;;;;;;5052335;28;20052;-87
2021/05/09 09:15:02;;;;;;;1.45;0.95;;;22.80;48.30;;;;;;5070603;28;20040;-90
2021/05/09 09:17:32;;;;;;;0.70;0.60;;;22.70;55.00;;;;;;5069539;28;20357;-85
2021/05/09 09:20:15;;;;;;;1.27;0.88;;;22.70;48.00;;;;;;5050213;28;20572;-89
2021/05/09 09:22:59;;;;;;;0.40;0.35;;;22.80;49.40;;;;;;5050136;28;20041;-80
2021/05/09 09:25:36;;;;;;;2.10;0.77;;;22.80;46.30;;;;;;5051548;28;20049;-87
2021/05/09 09:28:07;;;;;;;0.70;0.60;;;22.60;46.60;;;;;;5040055;28;20497;-90
2021/05/09 09:30:47;;;;;;;;;;;22.60;52.00;;;;;;5052206;28;20059;-91
2021/05/09 09:33:25;;;;;;;4.00;0.73;;;22.60;53.20;;;;;;5069366;28;19959;-88
2021/05/09 09:46:40;;;;;;;1.70;0.63;;;22.70;55.50;;;;;;5085235;27;20360;-84
2021/05/09 09:49:34;;;;;;;1.50;0.90;;;22.80;55.80;;;;;;5047717;28;20041;-82
2021/05/09 09:52:10;;;;;;;0.60;0.57;;;22.80;59.30;;;;;;5046917;28;20048;-72
2021/05/09 09:54:38;;;;;;;0.90;0.80;;;23.00;63.70;;;;;;5047464;28;20499;-73
2021/05/09 09:57:08;;;;;;;1.70;0.80;;;23.10;58.10;;;;;;5047336;28;20045;-75
2021/05/09 09:59:36;;;;;;;0.88;0.82;;;23.30;55.30;;;;;;5047278;28;20052;-74
2021/05/09 10:02:07;;;;;;;0.63;0.63;;;23.30;57.00;;;;;;5074298;28;20060;-73
2021/05/09 10:04:35;;;;;;;1.60;1.45;;;23.40;57.00;;;;;;5079359;28;20491;-74
2021/05/09 10:07:07;;;;;;;0.75;0.75;;;23.30;56.90;;;;;;5046902;28;20049;-79
2021/05/09 10:09:35;;;;;;;2.22;1.10;;;23.30;58.90;;;;;;5047197;28;20068;-75
2021/05/09 10:12:02;;;;;;;3.13;1.10;;;23.40;55.80;;;;;;5033120;28;20496;-77
2021/05/09 10:14:34;;;;;;;;;;;23.70;54.40;;;;;;5026579;28;20553;-77
2021/05/09 10:17:03;;;;;;;1.25;0.82;;;23.80;54.30;;;;;;5021841;28;19921;-77
2021/05/09 10:19:31;;;;;;;2.17;0.90;;;23.80;51.90;;;;;;5024489;28;20034;-81
2021/05/09 10:22:26;;;;;;;3.30;1.30;;;23.80;50.30;;;;;;5022724;28;20496;-78
2021/05/09 10:24:55;;;;;;;0.70;0.70;;;23.70;54.80;;;;;;5025111;28;20049;-78
2021/05/09 10:27:40;;;;;;;1.90;0.93;;;23.80;51.60;;;;;;5030147;28;20041;-79
2021/05/09 10:30:13;;;;;;;1.20;1.10;;;23.80;55.90;;;;;;5026999;28;20061;-79
2021/05/09 10:32:45;;;;;;;2.15;1.10;;;23.70;54.40;;;;;;5044492;28;20052;-80
2021/05/09 10:35:12;;;;;;;1.00;1.00;;;23.80;54.80;;;;;;5042255;28;20053;-81
2021/05/09 10:37:52;;;;;;;1.20;1.13;;;24.00;55.30;;;;;;5027135;28;20057;-81
2021/05/09 10:40:20;;;;;;;1.10;0.80;;;24.20;52.10;;;;;;5026114;28;20053;-80
2021/05/09 10:43:09;;;;;;;1.98;0.68;;;24.40;49.00;;;;;;5026690;28;20496;-80
2021/05/09 10:45:38;;;;;;;1.50;0.88;;;24.50;50.00;;;;;;5023685;28;20061;-78
2021/05/09 10:48:22;;;;;;;0.60;0.60;;;24.50;44.60;;;;;;5026779;28;20045;-83
2021/05/09 10:50:50;;;;;;;0.88;0.77;;;24.60;48.00;;;;;;5032743;28;20049;-77
2021/05/09 10:53:36;;;;;;;1.63;0.60;;;24.60;43.80;;;;;;5029015;28;20511;-79
2021/05/09 10:56:04;;;;;;;0.57;0.57;;;24.60;43.50;;;;;;5013059;28;20064;-80
2021/05/09 10:58:46;;;;;;;2.40;0.80;;;24.70;41.20;;;;;;4998545;28;20065;-78
2021/05/09 11:01:17;;;;;;;0.70;0.50;;;24.60;44.70;;;;;;5017624;28;20056;-78
2021/05/09 11:04:00;;;;;;;0.50;0.50;;;24.80;46.20;;;;;;5031203;28;20049;-79
2021/05/09 11:06:27;;;;;;;1.88;0.70;;;24.90;44.90;;;;;;5032186;28;20057;-77
2021/05/09 11:08:55;;;;;;;0.70;0.70;;;24.80;39.20;;;;;;5032950;28;20053;-76
2021/05/09 11:11:26;;;;;;;0.80;0.80;;;24.70;40.50;;;;;;5030644;28;20053;-72
2021/05/09 11:13:59;;;;;;;1.15;0.73;;;24.70;41.20;;;;;;5032595;28;20046;-73
2021/05/09 11:16:40;;;;;;;4.97;0.77;;;24.70;42.90;;;;;;5022054;28;20049;-77
2021/05/09 11:19:09;;;;;;;1.52;0.75;;;24.90;47.10;;;;;;5020467;28;20488;-78
2021/05/09 11:21:42;;;;;;;3.08;0.82;;;24.80;43.00;;;;;;5021241;28;20042;-79
2021/05/09 11:24:11;;;;;;;2.70;0.90;;;24.80;38.30;;;;;;5022012;28;20079;-81
2021/05/09 11:27:05;;;;;;;1.02;0.90;;;24.70;43.30;;;;;;5016487;28;20342;-79
2021/05/09 11:29:33;;;;;;;0.60;0.60;;;24.70;45.60;;;;;;5011474;28;20448;-78
2021/05/09 11:32:10;;;;;;;1.10;0.88;;;24.90;43.90;;;;;;5007794;28;20780;-76
2021/05/09 11:34:39;;;;;;;3.38;0.90;;;25.00;45.70;;;;;;5012048;28;20050;-76
2021/05/09 11:37:07;;;;;;;0.45;0.45;;;24.90;41.90;;;;;;5012833;28;20053;-74
2021/05/09 11:39:37;;;;;;;1.23;0.68;;;24.80;41.60;;;;;;5020645;28;20037;-74
2021/05/09 11:42:08;;;;;;;1.60;0.88;;;24.80;43.00;;;;;;5032051;28;20373;-74
2021/05/09 11:44:42;;;;;;;2.55;0.88;;;24.90;46.00;;;;;;5032257;28;20459;-78
2021/05/09 11:47:15;;;;;;;1.48;0.63;;;25.00;40.00;;;;;;5031889;28;20045;-79
2021/05/09 11:49:44;;;;;;;0.57;0.57;;;24.90;40.90;;;;;;5032543;28;20832;-77
2021/05/09 11:52:18;;;;;;;0.95;0.55;;;24.90;38.60;;;;;;5031356;28;20050;-73
2021/05/09 11:54:48;;;;;;;3.58;0.90;;;24.80;37.80;;;;;;5026632;28;20069;-75
2021/05/09 11:57:17;;;;;;;0.57;0.57;;;24.80;39.90;;;;;;5012343;28;20456;-72
2021/05/09 11:59:49;;;;;;;1.35;1.00;;;24.90;38.70;;;;;;5011321;28;20041;-73
2021/05/09 12:02:21;;;;;;;0.75;0.57;;;24.90;38.40;;;;;;5012138;28;20053;-76
2021/05/09 12:04:56;;;;;;;0.60;0.60;;;25.10;41.60;;;;;;5012213;28;20049;-78
2021/05/09 12:07:28;;;;;;;5.07;0.70;;;25.10;39.20;;;;;;5012305;28;20042;-77
2021/05/09 12:10:07;;;;;;;0.80;0.60;;;25.10;38.90;;;;;;5012918;28;20520;-74
2021/05/09 12:12:40;;;;;;;2.60;0.50;;;25.00;35.50;;;;;;5011814;28;20057;-79
2021/05/09 12:15:18;;;;;;;1.20;0.82;;;24.90;37.30;;;;;;5011951;28;20048;-83
2021/05/09 12:17:50;;;;;;;2.17;1.55;;;24.80;37.70;;;;;;5010784;28;20053;-78
2021/05/09 12:20:30;;;;;;;0.80;0.60;;;25.00;38.60;;;;;;5012066;28;20046;-76
2021/05/09 12:23:01;;;;;;;1.95;0.65;;;25.10;41.00;;;;;;5011435;28;20057;-85
2021/05/09 12:25:39;;;;;;;1.65;0.60;;;25.20;36.30;;;;;;5012390;28;20053;-83
2021/05/09 12:28:12;;;;;;;2.80;0.57;;;25.10;38.10;;;;;;5023506;28;20037;-86
2021/05/09 12:30:42;;;;;;;0.93;0.80;;;25.10;38.00;;;;;;5031052;28;20483;-84
2021/05/09 12:33:10;;;;;;;0.60;0.60;;;25.10;36.90;;;;;;5031778;28;20060;-83
2021/05/09 12:35:43;;;;;;;0.57;0.57;;;24.90;36.10;;;;;;5031053;28;20041;-84
2021/05/09 12:38:11;;;;;;;0.77;0.50;;;24.90;37.60;;;;;;5031820;28;20484;-85
2021/05/09 12:40:41;;;;;;;0.57;0.50;;;25.20;40.90;;;;;;5030703;28;20046;-86
2021/05/09 12:43:09;;;;;;;2.50;0.50;;;25.40;42.40;;;;;;5031084;28;20534;-85
2021/05/09 12:45:42;;;;;;;0.73;0.60;;;25.40;37.10;;;;;;5031529;28;20414;-79
2021/05/09 12:48:12;;;;;;;4.28;0.65;;;25.40;35.30;;;;;;5030701;28;20056;-84
2021/05/09 12:50:53;;;;;;;0.63;0.60;;;25.20;34.80;;;;;;5030057;28;20782;-85
2021/05/09 12:53:42;;;;;;;0.90;0.75;;;25.00;35.10;;;;;;5031665;28;20054;-87
2021/05/09 12:56:22;;;;;;;0.75;0.68;;;25.10;39.50;;;;;;5030738;28;20045;-85
2021/05/09 12:59:02;;;;;;;3.70;1.47;;;25.10;37.80;;;;;;5030832;28;20041;-77
2021/05/09 13:01:31;;;;;;;0.63;0.52;;;25.20;39.00;;;;;;5030524;28;20750;-86
2021/05/09 13:03:59;;;;;;;0.43;0.30;;;25.10;37.10;;;;;;5029823;28;20084;-84
2021/05/09 13:06:27;;;;;;;0.63;0.50;;;24.80;36.50;;;;;;5030346;28;20065;-82
2021/05/09 13:08:55;;;;;;;0.57;0.57;;;24.60;36.60;;;;;;5030868;28;20061;-85
2021/05/09 13:11:23;;;;;;;0.95;0.63;;;24.70;38.40;;;;;;5030777;28;20065;-87
2021/05/09 13:13:50;;;;;;;1.08;0.70;;;24.80;37.80;;;;;;5030926;28;20057;-87
2021/05/09 13:16:18;;;;;;;0.82;0.50;;;24.90;43.00;;;;;;5030407;28;20049;-83
2021/05/09 13:18:48;;;;;;;1.35;0.60;;;25.10;38.40;;;;;;5028532;28;20052;-81
2021/05/09 13:21:15;;;;;;;0.93;0.80;;;25.30;41.40;;;;;;5030392;28;20124;-82
2021/05/09 13:23:43;;;;;;;2.58;1.05;;;25.40;40.80;;;;;;5029170;28;20041;-85